Kezdőlap
METAR-TAF:

METAR-TAF

Repülőterek :

Christchurch, Új-Zéland

földrajzi szélesség: 43-29S, földrajzi hosszúság: 172-33E, magasság: 38 m

Jelenlegi meteorológiai megfigyelések

A jelentés 30 perccel ezelõtt készült, 10:30 UTC
Északkeleti szél 6 kt
Hőmérséklet 7°C
Páratartalom 87%
Légköri nyomás 1028 hPa
Látótávolság 10 km, vagy több

METAR: NZCH 181030Z AUTO 04006KT 9999 NCD 07/05 Q1028 NOSIG

Idő: 00:00 (11:00 UTC)

Előrejelzés

A jelentés 5 órával és 44 perccel ezelõtt készült, 05:16 UTC
Az előrejelzés 18-én 06 óra UTC és 19-én 06 óra UTC között érvényes
Északkeleti szél 8 kt
Látótávolság 10 km, vagy több
Kevés felhő 3000 lábon

TAF: NZCH 180516Z 1806/1906 04008KT 9999 FEW030

Meteorológiai megfigyelések és előrejelzések több, mint 4000 repülőtéren (METAR és TAF jelentéseket).

A térképen piros és sárga pontok jelzik az elérhető meteorológiai állomásokat.

Mozgassa az egeret a pont fölött, hogy megjelenjen az állomás neve.

Azután kattintson az időjárási megfigyelések és előrejelzések megtekintéséhez.

A térkép megváltoztatása: kattintson a fekete keresztel jelölt zöld gombra ráközelítéshez, a vonallal jelölt zöld gombra távolításhoz, vagy a zöld nyilakra a szomszédos térképek eléréséhez.


METAR-TAF: